sensor_id;sensor_type;location;lat;lon;timestamp;temperature;humidity
76040;SHT30;64736;50.462;4.850;2024-02-16T00:00:10;13.41;74.95
76040;SHT30;64736;50.462;4.850;2024-02-16T00:02:39;13.36;75.29
76040;SHT30;64736;50.462;4.850;2024-02-16T00:05:07;13.43;75.12
76040;SHT30;64736;50.462;4.850;2024-02-16T00:07:33;13.23;75.59
76040;SHT30;64736;50.462;4.850;2024-02-16T00:10:00;13.10;76.31
76040;SHT30;64736;50.462;4.850;2024-02-16T00:12:25;13.11;76.46
76040;SHT30;64736;50.462;4.850;2024-02-16T00:14:51;13.17;75.90
76040;SHT30;64736;50.462;4.850;2024-02-16T00:17:17;13.27;75.41
76040;SHT30;64736;50.462;4.850;2024-02-16T00:19:44;13.23;76.02
76040;SHT30;64736;50.462;4.850;2024-02-16T00:22:10;13.14;76.50
76040;SHT30;64736;50.462;4.850;2024-02-16T00:24:35;13.19;76.07
76040;SHT30;64736;50.462;4.850;2024-02-16T00:27:02;13.34;75.25
76040;SHT30;64736;50.462;4.850;2024-02-16T00:29:31;13.28;75.75
76040;SHT30;64736;50.462;4.850;2024-02-16T00:31:57;13.11;76.24
76040;SHT30;64736;50.462;4.850;2024-02-16T00:34:25;13.03;76.70
76040;SHT30;64736;50.462;4.850;2024-02-16T00:36:51;13.04;76.52
76040;SHT30;64736;50.462;4.850;2024-02-16T00:39:18;13.23;75.80
76040;SHT30;64736;50.462;4.850;2024-02-16T00:41:43;13.19;76.37
76040;SHT30;64736;50.462;4.850;2024-02-16T00:44:10;13.33;75.78
76040;SHT30;64736;50.462;4.850;2024-02-16T00:46:36;13.34;75.65
76040;SHT30;64736;50.462;4.850;2024-02-16T00:49:03;13.40;75.58
76040;SHT30;64736;50.462;4.850;2024-02-16T00:51:29;13.19;76.45
76040;SHT30;64736;50.462;4.850;2024-02-16T00:53:55;13.26;76.30
76040;SHT30;64736;50.462;4.850;2024-02-16T00:56:22;13.27;76.26
76040;SHT30;64736;50.462;4.850;2024-02-16T00:58:48;13.21;76.61
76040;SHT30;64736;50.462;4.850;2024-02-16T01:01:14;13.26;76.46
76040;SHT30;64736;50.462;4.850;2024-02-16T01:03:40;13.31;76.21
76040;SHT30;64736;50.462;4.850;2024-02-16T01:06:06;13.06;77.51
76040;SHT30;64736;50.462;4.850;2024-02-16T01:08:34;13.24;77.09
76040;SHT30;64736;50.462;4.850;2024-02-16T01:11:00;13.28;76.85
76040;SHT30;64736;50.462;4.850;2024-02-16T01:13:26;13.27;76.59
76040;SHT30;64736;50.462;4.850;2024-02-16T01:15:52;13.10;77.21
76040;SHT30;64736;50.462;4.850;2024-02-16T01:18:19;13.19;76.96
76040;SHT30;64736;50.462;4.850;2024-02-16T01:20:44;13.27;76.93
76040;SHT30;64736;50.462;4.850;2024-02-16T01:23:10;13.17;77.26
76040;SHT30;64736;50.462;4.850;2024-02-16T01:25:35;13.14;77.36
76040;SHT30;64736;50.462;4.850;2024-02-16T01:28:01;13.13;77.42
76040;SHT30;64736;50.462;4.850;2024-02-16T01:30:27;13.20;77.23
76040;SHT30;64736;50.462;4.850;2024-02-16T01:32:52;13.07;77.60
76040;SHT30;64736;50.462;4.850;2024-02-16T01:35:18;12.75;79.15
76040;SHT30;64736;50.462;4.850;2024-02-16T01:37:44;12.73;79.23
76040;SHT30;64736;50.462;4.850;2024-02-16T01:40:10;12.89;78.78
76040;SHT30;64736;50.462;4.850;2024-02-16T01:42:41;13.00;78.33
76040;SHT30;64736;50.462;4.850;2024-02-16T01:45:07;13.11;78.08
76040;SHT30;64736;50.462;4.850;2024-02-16T01:47:35;13.13;77.89
76040;SHT30;64736;50.462;4.850;2024-02-16T01:50:02;13.19;77.83
76040;SHT30;64736;50.462;4.850;2024-02-16T01:52:29;13.23;77.88
76040;SHT30;64736;50.462;4.850;2024-02-16T01:54:59;13.17;78.07
76040;SHT30;64736;50.462;4.850;2024-02-16T01:57:25;13.19;77.96
76040;SHT30;64736;50.462;4.850;2024-02-16T01:59:52;13.00;78.62
76040;SHT30;64736;50.462;4.850;2024-02-16T02:02:19;13.09;78.51
76040;SHT30;64736;50.462;4.850;2024-02-16T02:04:45;13.16;78.42
76040;SHT30;64736;50.462;4.850;2024-02-16T02:07:14;13.26;78.15
76040;SHT30;64736;50.462;4.850;2024-02-16T02:09:39;13.06;78.81
76040;SHT30;64736;50.462;4.850;2024-02-16T02:12:05;13.11;78.63
76040;SHT30;64736;50.462;4.850;2024-02-16T02:14:31;13.10;78.65
76040;SHT30;64736;50.462;4.850;2024-02-16T02:16:57;13.16;78.59
76040;SHT30;64736;50.462;4.850;2024-02-16T02:19:22;13.19;78.54
76040;SHT30;64736;50.462;4.850;2024-02-16T02:21:48;13.09;78.74
76040;SHT30;64736;50.462;4.850;2024-02-16T02:24:15;13.03;78.88
76040;SHT30;64736;50.462;4.850;2024-02-16T02:26:42;12.89;79.94
76040;SHT30;64736;50.462;4.850;2024-02-16T02:29:07;12.79;80.15
76040;SHT30;64736;50.462;4.850;2024-02-16T02:31:34;12.83;80.14
76040;SHT30;64736;50.462;4.850;2024-02-16T02:34:00;12.75;80.55
76040;SHT30;64736;50.462;4.850;2024-02-16T02:36:26;12.75;80.47
76040;SHT30;64736;50.462;4.850;2024-02-16T02:38:52;12.72;80.45
76040;SHT30;64736;50.462;4.850;2024-02-16T02:41:17;12.69;80.63
76040;SHT30;64736;50.462;4.850;2024-02-16T02:43:45;12.62;81.43
76040;SHT30;64736;50.462;4.850;2024-02-16T02:46:15;12.65;80.97
76040;SHT30;64736;50.462;4.850;2024-02-16T02:48:45;12.52;81.80
76040;SHT30;64736;50.462;4.850;2024-02-16T02:51:11;12.68;80.84
76040;SHT30;64736;50.462;4.850;2024-02-16T02:53:37;12.54;81.54
76040;SHT30;64736;50.462;4.850;2024-02-16T02:56:03;12.55;81.52
76040;SHT30;64736;50.462;4.850;2024-02-16T02:58:29;12.81;80.84
76040;SHT30;64736;50.462;4.850;2024-02-16T03:00:55;12.69;81.28
76040;SHT30;64736;50.462;4.850;2024-02-16T03:03:22;12.59;81.35
76040;SHT30;64736;50.462;4.850;2024-02-16T03:05:48;12.83;80.67
76040;SHT30;64736;50.462;4.850;2024-02-16T03:08:14;12.59;81.61
76040;SHT30;64736;50.462;4.850;2024-02-16T03:10:40;12.71;81.41
76040;SHT30;64736;50.462;4.850;2024-02-16T03:13:06;12.79;81.19
76040;SHT30;64736;50.462;4.850;2024-02-16T03:15:34;12.66;81.42
76040;SHT30;64736;50.462;4.850;2024-02-16T03:18:07;12.62;82.00
76040;SHT30;64736;50.462;4.850;2024-02-16T03:20:34;12.79;81.16
76040;SHT30;64736;50.462;4.850;2024-02-16T03:23:01;12.90;80.97
76040;SHT30;64736;50.462;4.850;2024-02-16T03:25:27;12.82;81.15
76040;SHT30;64736;50.462;4.850;2024-02-16T03:27:52;12.82;81.08
76040;SHT30;64736;50.462;4.850;2024-02-16T03:30:19;12.71;81.67
76040;SHT30;64736;50.462;4.850;2024-02-16T03:32:48;12.81;81.56
76040;SHT30;64736;50.462;4.850;2024-02-16T03:35:15;12.90;81.23
76040;SHT30;64736;50.462;4.850;2024-02-16T03:37:40;12.95;80.90
76040;SHT30;64736;50.462;4.850;2024-02-16T03:40:08;12.90;81.02
76040;SHT30;64736;50.462;4.850;2024-02-16T03:42:35;13.13;80.37
76040;SHT30;64736;50.462;4.850;2024-02-16T03:45:02;13.19;80.21
76040;SHT30;64736;50.462;4.850;2024-02-16T03:47:28;13.21;80.12
76040;SHT30;64736;50.462;4.850;2024-02-16T03:49:54;13.14;80.28
76040;SHT30;64736;50.462;4.850;2024-02-16T03:52:19;13.20;79.99
76040;SHT30;64736;50.462;4.850;2024-02-16T03:54:45;13.16;80.37
76040;SHT30;64736;50.462;4.850;2024-02-16T03:57:14;13.11;80.41
76040;SHT30;64736;50.462;4.850;2024-02-16T03:59:45;13.33;79.81
76040;SHT30;64736;50.462;4.850;2024-02-16T04:02:12;13.34;79.85
76040;SHT30;64736;50.462;4.850;2024-02-16T04:04:41;13.23;80.35
76040;SHT30;64736;50.462;4.850;2024-02-16T04:07:07;13.36;79.82
76040;SHT30;64736;50.462;4.850;2024-02-16T04:09:34;13.37;79.97
76040;SHT30;64736;50.462;4.850;2024-02-16T04:12:00;13.41;79.70
76040;SHT30;64736;50.462;4.850;2024-02-16T04:14:27;13.44;79.71
76040;SHT30;64736;50.462;4.850;2024-02-16T04:16:52;13.47;79.43
76040;SHT30;64736;50.462;4.850;2024-02-16T04:19:18;13.38;80.13
76040;SHT30;64736;50.462;4.850;2024-02-16T04:21:44;13.27;80.33
76040;SHT30;64736;50.462;4.850;2024-02-16T04:24:10;13.31;80.40
76040;SHT30;64736;50.462;4.850;2024-02-16T04:26:36;13.47;79.70
76040;SHT30;64736;50.462;4.850;2024-02-16T04:29:03;13.36;80.25
76040;SHT30;64736;50.462;4.850;2024-02-16T04:31:29;13.51;79.72
76040;SHT30;64736;50.462;4.850;2024-02-16T04:33:55;13.54;79.52
76040;SHT30;64736;50.462;4.850;2024-02-16T04:36:21;13.43;79.98
76040;SHT30;64736;50.462;4.850;2024-02-16T04:38:47;13.47;79.96
76040;SHT30;64736;50.462;4.850;2024-02-16T04:41:13;13.43;80.20
76040;SHT30;64736;50.462;4.850;2024-02-16T04:43:38;13.50;80.02
76040;SHT30;64736;50.462;4.850;2024-02-16T04:46:05;13.50;79.94
76040;SHT30;64736;50.462;4.850;2024-02-16T04:48:31;13.55;79.76
76040;SHT30;64736;50.462;4.850;2024-02-16T04:50:57;13.47;80.18
76040;SHT30;64736;50.462;4.850;2024-02-16T04:53:23;13.38;80.54
76040;SHT30;64736;50.462;4.850;2024-02-16T04:55:49;13.34;80.67
76040;SHT30;64736;50.462;4.850;2024-02-16T04:58:14;13.40;80.67
76040;SHT30;64736;50.462;4.850;2024-02-16T05:00:40;13.48;80.25
76040;SHT30;64736;50.462;4.850;2024-02-16T05:03:06;13.40;80.95
76040;SHT30;64736;50.462;4.850;2024-02-16T05:05:32;13.40;80.78
76040;SHT30;64736;50.462;4.850;2024-02-16T05:07:58;13.44;80.47
76040;SHT30;64736;50.462;4.850;2024-02-16T05:10:23;13.50;80.52
76040;SHT30;64736;50.462;4.850;2024-02-16T05:12:49;13.44;80.75
76040;SHT30;64736;50.462;4.850;2024-02-16T05:15:15;13.47;80.66
76040;SHT30;64736;50.462;4.850;2024-02-16T05:17:42;13.46;80.82
76040;SHT30;64736;50.462;4.850;2024-02-16T05:20:11;13.50;80.79
76040;SHT30;64736;50.462;4.850;2024-02-16T05:22:42;13.48;80.96
76040;SHT30;64736;50.462;4.850;2024-02-16T05:25:09;13.48;80.89
76040;SHT30;64736;50.462;4.850;2024-02-16T05:27:36;13.53;80.88
76040;SHT30;64736;50.462;4.850;2024-02-16T05:30:04;13.53;80.92
76040;SHT30;64736;50.462;4.850;2024-02-16T05:32:36;13.54;80.90
76040;SHT30;64736;50.462;4.850;2024-02-16T05:35:05;13.54;80.99
76040;SHT30;64736;50.462;4.850;2024-02-16T05:37:47;13.57;80.87
76040;SHT30;64736;50.462;4.850;2024-02-16T05:40:17;13.58;81.13
76040;SHT30;64736;50.462;4.850;2024-02-16T05:42:54;13.59;81.05
76040;SHT30;64736;50.462;4.850;2024-02-16T05:45:24;13.62;81.11
76040;SHT30;64736;50.462;4.850;2024-02-16T05:47:51;13.67;80.97
76040;SHT30;64736;50.462;4.850;2024-02-16T05:50:17;13.71;80.87
76040;SHT30;64736;50.462;4.850;2024-02-16T05:52:43;13.75;80.82
76040;SHT30;64736;50.462;4.850;2024-02-16T05:55:10;13.77;80.82
76040;SHT30;64736;50.462;4.850;2024-02-16T05:57:37;13.82;80.88
76040;SHT30;64736;50.462;4.850;2024-02-16T06:00:07;13.81;80.73
76040;SHT30;64736;50.462;4.850;2024-02-16T06:02:36;13.79;80.85
76040;SHT30;64736;50.462;4.850;2024-02-16T06:05:03;13.78;80.93
76040;SHT30;64736;50.462;4.850;2024-02-16T06:07:29;13.81;80.97
76040;SHT30;64736;50.462;4.850;2024-02-16T06:09:56;13.82;81.04
76040;SHT30;64736;50.462;4.850;2024-02-16T06:12:22;13.83;80.82
76040;SHT30;64736;50.462;4.850;2024-02-16T06:14:48;13.88;80.62
76040;SHT30;64736;50.462;4.850;2024-02-16T06:17:15;13.88;80.71
76040;SHT30;64736;50.462;4.850;2024-02-16T06:19:41;13.88;80.79
76040;SHT30;64736;50.462;4.850;2024-02-16T06:22:08;13.85;81.02
76040;SHT30;64736;50.462;4.850;2024-02-16T06:24:35;13.85;80.92
76040;SHT30;64736;50.462;4.850;2024-02-16T06:27:01;13.85;80.98
76040;SHT30;64736;50.462;4.850;2024-02-16T06:29:29;13.90;80.93
76040;SHT30;64736;50.462;4.850;2024-02-16T06:31:56;13.86;80.92
76040;SHT30;64736;50.462;4.850;2024-02-16T06:34:21;13.89;80.90
76040;SHT30;64736;50.462;4.850;2024-02-16T06:36:47;13.88;80.89
76040;SHT30;64736;50.462;4.850;2024-02-16T06:39:15;13.92;80.99
76040;SHT30;64736;50.462;4.850;2024-02-16T06:41:46;13.92;81.08
76040;SHT30;64736;50.462;4.850;2024-02-16T06:44:13;13.95;80.98
76040;SHT30;64736;50.462;4.850;2024-02-16T06:46:40;13.95;81.10
76040;SHT30;64736;50.462;4.850;2024-02-16T06:49:05;13.90;81.26
76040;SHT30;64736;50.462;4.850;2024-02-16T06:51:31;13.92;81.31
76040;SHT30;64736;50.462;4.850;2024-02-16T06:53:57;13.88;81.30
76040;SHT30;64736;50.462;4.850;2024-02-16T06:56:23;13.92;81.44
76040;SHT30;64736;50.462;4.850;2024-02-16T06:58:49;13.90;81.50
76040;SHT30;64736;50.462;4.850;2024-02-16T07:01:16;13.89;81.54
76040;SHT30;64736;50.462;4.850;2024-02-16T07:03:44;13.89;81.73
76040;SHT30;64736;50.462;4.850;2024-02-16T07:06:10;13.89;82.05
76040;SHT30;64736;50.462;4.850;2024-02-16T07:08:36;13.88;82.41
76040;SHT30;64736;50.462;4.850;2024-02-16T07:11:04;13.86;82.09
76040;SHT30;64736;50.462;4.850;2024-02-16T07:13:31;13.86;82.07
76040;SHT30;64736;50.462;4.850;2024-02-16T07:15:57;13.89;82.11
76040;SHT30;64736;50.462;4.850;2024-02-16T07:18:24;13.88;82.19
76040;SHT30;64736;50.462;4.850;2024-02-16T07:20:50;13.88;82.49
76040;SHT30;64736;50.462;4.850;2024-02-16T07:23:16;13.86;82.47
76040;SHT30;64736;50.462;4.850;2024-02-16T07:25:42;13.88;82.18
76040;SHT30;64736;50.462;4.850;2024-02-16T07:28:08;13.88;82.24
76040;SHT30;64736;50.462;4.850;2024-02-16T07:30:35;13.88;82.24
76040;SHT30;64736;50.462;4.850;2024-02-16T07:33:07;13.90;82.45
76040;SHT30;64736;50.462;4.850;2024-02-16T07:35:33;13.85;83.62
76040;SHT30;64736;50.462;4.850;2024-02-16T07:38:01;13.79;83.31
76040;SHT30;64736;50.462;4.850;2024-02-16T07:40:27;13.79;83.31
76040;SHT30;64736;50.462;4.850;2024-02-16T07:42:53;13.75;85.07
76040;SHT30;64736;50.462;4.850;2024-02-16T07:45:20;13.72;84.31
76040;SHT30;64736;50.462;4.850;2024-02-16T07:47:45;13.77;83.73
76040;SHT30;64736;50.462;4.850;2024-02-16T07:50:11;13.78;83.66
76040;SHT30;64736;50.462;4.850;2024-02-16T07:52:38;13.81;83.47
76040;SHT30;64736;50.462;4.850;2024-02-16T07:55:08;13.83;83.42
76040;SHT30;64736;50.462;4.850;2024-02-16T07:57:34;13.83;83.38
76040;SHT30;64736;50.462;4.850;2024-02-16T08:00:00;13.86;83.12
76040;SHT30;64736;50.462;4.850;2024-02-16T08:02:26;13.89;83.37
76040;SHT30;64736;50.462;4.850;2024-02-16T08:04:52;13.89;83.41
76040;SHT30;64736;50.462;4.850;2024-02-16T08:07:18;13.89;83.49
76040;SHT30;64736;50.462;4.850;2024-02-16T08:09:44;13.88;83.59
76040;SHT30;64736;50.462;4.850;2024-02-16T08:12:11;13.86;83.59
76040;SHT30;64736;50.462;4.850;2024-02-16T08:14:39;13.90;83.61
76040;SHT30;64736;50.462;4.850;2024-02-16T08:17:06;13.94;83.82
76040;SHT30;64736;50.462;4.850;2024-02-16T08:19:36;13.95;83.47
76040;SHT30;64736;50.462;4.850;2024-02-16T08:22:03;13.98;83.65
76040;SHT30;64736;50.462;4.850;2024-02-16T08:24:35;13.98;83.56
76040;SHT30;64736;50.462;4.850;2024-02-16T08:27:01;14.01;83.56
76040;SHT30;64736;50.462;4.850;2024-02-16T08:29:27;14.01;83.54
76040;SHT30;64736;50.462;4.850;2024-02-16T08:31:54;14.02;83.73
76040;SHT30;64736;50.462;4.850;2024-02-16T08:34:20;14.06;83.47
76040;SHT30;64736;50.462;4.850;2024-02-16T08:36:49;14.08;83.61
76040;SHT30;64736;50.462;4.850;2024-02-16T08:39:17;14.13;83.90
76040;SHT30;64736;50.462;4.850;2024-02-16T08:41:45;14.10;86.85
76040;SHT30;64736;50.462;4.850;2024-02-16T08:44:13;13.82;89.16
76040;SHT30;64736;50.462;4.850;2024-02-16T08:46:39;13.62;90.05
76040;SHT30;64736;50.462;4.850;2024-02-16T08:49:05;13.55;91.10
76040;SHT30;64736;50.462;4.850;2024-02-16T08:51:32;13.46;90.66
76040;SHT30;64736;50.462;4.850;2024-02-16T08:53:58;13.46;90.74
76040;SHT30;64736;50.462;4.850;2024-02-16T08:56:23;13.46;90.33
76040;SHT30;64736;50.462;4.850;2024-02-16T08:58:49;13.47;89.73
76040;SHT30;64736;50.462;4.850;2024-02-16T09:01:14;13.53;89.81
76040;SHT30;64736;50.462;4.850;2024-02-16T09:03:42;13.55;89.08
76040;SHT30;64736;50.462;4.850;2024-02-16T09:06:07;13.55;88.21
76040;SHT30;64736;50.462;4.850;2024-02-16T09:08:33;13.59;88.47
76040;SHT30;64736;50.462;4.850;2024-02-16T09:11:04;13.64;88.53
76040;SHT30;64736;50.462;4.850;2024-02-16T09:13:34;13.71;88.65
76040;SHT30;64736;50.462;4.850;2024-02-16T09:16:02;13.77;90.95
76040;SHT30;64736;50.462;4.850;2024-02-16T09:18:29;13.59;91.12
76040;SHT30;64736;50.462;4.850;2024-02-16T09:20:54;13.50;92.28
76040;SHT30;64736;50.462;4.850;2024-02-16T09:23:20;13.46;93.25
76040;SHT30;64736;50.462;4.850;2024-02-16T09:25:46;13.38;92.51
76040;SHT30;64736;50.462;4.850;2024-02-16T09:28:12;13.40;92.80
76040;SHT30;64736;50.462;4.850;2024-02-16T09:30:39;13.43;93.04
76040;SHT30;64736;50.462;4.850;2024-02-16T09:33:04;13.48;92.91
76040;SHT30;64736;50.462;4.850;2024-02-16T09:35:31;13.44;91.81
76040;SHT30;64736;50.462;4.850;2024-02-16T09:37:56;13.48;91.79
76040;SHT30;64736;50.462;4.850;2024-02-16T09:40:22;13.51;91.67
76040;SHT30;64736;50.462;4.850;2024-02-16T09:42:48;13.59;91.62
76040;SHT30;64736;50.462;4.850;2024-02-16T09:45:17;13.59;91.15
76040;SHT30;64736;50.462;4.850;2024-02-16T09:47:45;13.64;90.70
76040;SHT30;64736;50.462;4.850;2024-02-16T09:50:12;13.67;90.21
76040;SHT30;64736;50.462;4.850;2024-02-16T09:52:42;13.71;89.82
76040;SHT30;64736;50.462;4.850;2024-02-16T09:55:12;13.74;89.71
76040;SHT30;64736;50.462;4.850;2024-02-16T09:57:38;13.79;89.56
76040;SHT30;64736;50.462;4.850;2024-02-16T10:00:04;13.81;88.97
76040;SHT30;64736;50.462;4.850;2024-02-16T10:02:43;13.86;88.87
76040;SHT30;64736;50.462;4.850;2024-02-16T10:05:19;13.83;88.40
76040;SHT30;64736;50.462;4.850;2024-02-16T10:07:45;13.96;88.30
76040;SHT30;64736;50.462;4.850;2024-02-16T10:13:03;13.96;88.03
76040;SHT30;64736;50.462;4.850;2024-02-16T10:15:30;14.01;88.03
76040;SHT30;64736;50.462;4.850;2024-02-16T10:20:28;14.06;87.94
76040;SHT30;64736;50.462;4.850;2024-02-16T10:23:09;14.10;87.93
76040;SHT30;64736;50.462;4.850;2024-02-16T10:25:39;14.13;87.93
76040;SHT30;64736;50.462;4.850;2024-02-16T10:28:10;14.13;87.77
76040;SHT30;64736;50.462;4.850;2024-02-16T10:30:41;14.19;87.91
76040;SHT30;64736;50.462;4.850;2024-02-16T10:33:08;14.16;87.84
76040;SHT30;64736;50.462;4.850;2024-02-16T10:35:37;14.19;87.98
76040;SHT30;64736;50.462;4.850;2024-02-16T10:38:05;14.23;88.05
76040;SHT30;64736;50.462;4.850;2024-02-16T10:40:41;14.26;87.92
76040;SHT30;64736;50.462;4.850;2024-02-16T10:43:08;14.25;88.04
76040;SHT30;64736;50.462;4.850;2024-02-16T10:45:36;14.26;88.22
76040;SHT30;64736;50.462;4.850;2024-02-16T10:48:06;14.22;88.20
76040;SHT30;64736;50.462;4.850;2024-02-16T10:50:34;14.17;88.36
76040;SHT30;64736;50.462;4.850;2024-02-16T10:53:12;14.16;88.62
76040;SHT30;64736;50.462;4.850;2024-02-16T10:55:39;14.13;88.95
76040;SHT30;64736;50.462;4.850;2024-02-16T10:58:07;14.13;88.92
76040;SHT30;64736;50.462;4.850;2024-02-16T11:00:33;14.12;88.99
76040;SHT30;64736;50.462;4.850;2024-02-16T11:03:02;14.10;89.33
76040;SHT30;64736;50.462;4.850;2024-02-16T11:05:35;14.12;89.22
76040;SHT30;64736;50.462;4.850;2024-02-16T11:08:05;14.09;89.22
76040;SHT30;64736;50.462;4.850;2024-02-16T11:10:30;14.10;89.18
76040;SHT30;64736;50.462;4.850;2024-02-16T11:13:03;14.10;89.40
76040;SHT30;64736;50.462;4.850;2024-02-16T11:15:34;14.13;89.38
76040;SHT30;64736;50.462;4.850;2024-02-16T11:18:04;14.10;89.46
76040;SHT30;64736;50.462;4.850;2024-02-16T11:20:37;14.08;89.46
76040;SHT30;64736;50.462;4.850;2024-02-16T11:23:09;14.08;89.62
76040;SHT30;64736;50.462;4.850;2024-02-16T11:25:35;14.06;89.74
76040;SHT30;64736;50.462;4.850;2024-02-16T11:28:02;14.10;89.90
76040;SHT30;64736;50.462;4.850;2024-02-16T11:30:32;14.08;90.03
76040;SHT30;64736;50.462;4.850;2024-02-16T11:32:58;14.05;90.06
76040;SHT30;64736;50.462;4.850;2024-02-16T11:38:19;13.99;90.56
76040;SHT30;64736;50.462;4.850;2024-02-16T11:40:59;14.01;91.11
76040;SHT30;64736;50.462;4.850;2024-02-16T11:43:25;13.90;91.67
76040;SHT30;64736;50.462;4.850;2024-02-16T11:45:52;13.82;92.00
76040;SHT30;64736;50.462;4.850;2024-02-16T11:48:22;13.79;92.68
76040;SHT30;64736;50.462;4.850;2024-02-16T11:50:58;13.69;92.66
76040;SHT30;64736;50.462;4.850;2024-02-16T11:53:24;13.68;93.04
76040;SHT30;64736;50.462;4.850;2024-02-16T11:55:50;13.69;93.29
76040;SHT30;64736;50.462;4.850;2024-02-16T11:58:19;13.64;93.39
76040;SHT30;64736;50.462;4.850;2024-02-16T12:00:49;13.61;93.96
76040;SHT30;64736;50.462;4.850;2024-02-16T12:03:23;13.53;94.66
76040;SHT30;64736;50.462;4.850;2024-02-16T12:05:52;13.47;94.95
76040;SHT30;64736;50.462;4.850;2024-02-16T12:08:20;13.46;94.79
76040;SHT30;64736;50.462;4.850;2024-02-16T12:10:49;13.47;95.40
76040;SHT30;64736;50.462;4.850;2024-02-16T12:13:16;13.38;95.95
76040;SHT30;64736;50.462;4.850;2024-02-16T12:15:47;13.30;96.51
76040;SHT30;64736;50.462;4.850;2024-02-16T12:18:23;13.26;97.05
76040;SHT30;64736;50.462;4.850;2024-02-16T12:23:28;13.17;97.20
76040;SHT30;64736;50.462;4.850;2024-02-16T12:25:53;13.10;97.33
76040;SHT30;64736;50.462;4.850;2024-02-16T12:28:30;13.09;97.39
76040;SHT30;64736;50.462;4.850;2024-02-16T12:30:58;13.07;97.41
76040;SHT30;64736;50.462;4.850;2024-02-16T12:33:24;13.02;97.46
76040;SHT30;64736;50.462;4.850;2024-02-16T12:35:51;13.04;97.47
76040;SHT30;64736;50.462;4.850;2024-02-16T12:38:16;13.00;97.52
76040;SHT30;64736;50.462;4.850;2024-02-16T12:40:47;13.02;97.54
76040;SHT30;64736;50.462;4.850;2024-02-16T12:43:13;13.03;97.58
76040;SHT30;64736;50.462;4.850;2024-02-16T12:45:40;12.99;97.55
76040;SHT30;64736;50.462;4.850;2024-02-16T12:48:06;13.00;97.49
76040;SHT30;64736;50.462;4.850;2024-02-16T12:50:32;13.07;97.67
76040;SHT30;64736;50.462;4.850;2024-02-16T12:52:57;13.10;97.68
76040;SHT30;64736;50.462;4.850;2024-02-16T12:55:24;13.00;97.38
76040;SHT30;64736;50.462;4.850;2024-02-16T12:57:50;13.04;97.64
76040;SHT30;64736;50.462;4.850;2024-02-16T13:00:17;13.10;97.75
76040;SHT30;64736;50.462;4.850;2024-02-16T13:02:43;13.10;97.80
76040;SHT30;64736;50.462;4.850;2024-02-16T13:05:09;13.04;97.79
76040;SHT30;64736;50.462;4.850;2024-02-16T13:07:36;13.02;97.81
76040;SHT30;64736;50.462;4.850;2024-02-16T13:10:05;13.03;97.79
76040;SHT30;64736;50.462;4.850;2024-02-16T13:12:31;13.02;97.80
76040;SHT30;64736;50.462;4.850;2024-02-16T13:14:57;13.00;97.86
76040;SHT30;64736;50.462;4.850;2024-02-16T13:17:23;12.99;97.92
76040;SHT30;64736;50.462;4.850;2024-02-16T13:19:49;13.02;97.92
76040;SHT30;64736;50.462;4.850;2024-02-16T13:22:14;13.02;97.98
76040;SHT30;64736;50.462;4.850;2024-02-16T13:24:40;12.96;98.00
76040;SHT30;64736;50.462;4.850;2024-02-16T13:27:07;12.99;98.03
76040;SHT30;64736;50.462;4.850;2024-02-16T13:29:33;12.92;97.92
76040;SHT30;64736;50.462;4.850;2024-02-16T13:31:59;13.00;98.02
76040;SHT30;64736;50.462;4.850;2024-02-16T13:34:25;12.99;97.95
76040;SHT30;64736;50.462;4.850;2024-02-16T13:36:53;12.99;98.09
76040;SHT30;64736;50.462;4.850;2024-02-16T13:39:18;12.68;97.60
76040;SHT30;64736;50.462;4.850;2024-02-16T13:41:45;12.93;98.07
76040;SHT30;64736;50.462;4.850;2024-02-16T13:44:12;13.03;98.07
76040;SHT30;64736;50.462;4.850;2024-02-16T13:46:38;13.02;98.02
76040;SHT30;64736;50.462;4.850;2024-02-16T13:49:04;12.93;97.99
76040;SHT30;64736;50.462;4.850;2024-02-16T13:51:30;12.82;97.92
76040;SHT30;64736;50.462;4.850;2024-02-16T13:53:55;12.63;97.87
76040;SHT30;64736;50.462;4.850;2024-02-16T13:56:21;12.42;97.43
76040;SHT30;64736;50.462;4.850;2024-02-16T13:58:46;12.40;97.26
76040;SHT30;64736;50.462;4.850;2024-02-16T14:01:13;12.48;97.42
76040;SHT30;64736;50.462;4.850;2024-02-16T14:03:39;12.37;96.98
76040;SHT30;64736;50.462;4.850;2024-02-16T14:06:06;12.55;97.67
76040;SHT30;64736;50.462;4.850;2024-02-16T14:08:35;12.33;96.90
76040;SHT30;64736;50.462;4.850;2024-02-16T14:11:01;12.31;97.10
76040;SHT30;64736;50.462;4.850;2024-02-16T14:13:27;12.48;97.47
76040;SHT30;64736;50.462;4.850;2024-02-16T14:15:53;12.35;97.61
76040;SHT30;64736;50.462;4.850;2024-02-16T14:18:19;12.40;97.52
76040;SHT30;64736;50.462;4.850;2024-02-16T14:20:44;12.10;96.93
76040;SHT30;64736;50.462;4.850;2024-02-16T14:23:10;12.42;97.74
76040;SHT30;64736;50.462;4.850;2024-02-16T14:25:36;12.46;97.73
76040;SHT30;64736;50.462;4.850;2024-02-16T14:28:03;12.41;97.76
76040;SHT30;64736;50.462;4.850;2024-02-16T14:30:29;12.24;97.78
76040;SHT30;64736;50.462;4.850;2024-02-16T14:32:55;12.21;97.61
76040;SHT30;64736;50.462;4.850;2024-02-16T14:35:20;12.34;97.66
76040;SHT30;64736;50.462;4.850;2024-02-16T14:37:47;12.27;97.36
76040;SHT30;64736;50.462;4.850;2024-02-16T14:40:13;12.40;97.64
76040;SHT30;64736;50.462;4.850;2024-02-16T14:42:39;12.42;97.48
76040;SHT30;64736;50.462;4.850;2024-02-16T14:45:05;12.55;97.40
76040;SHT30;64736;50.462;4.850;2024-02-16T14:47:35;12.59;97.29
76040;SHT30;64736;50.462;4.850;2024-02-16T14:50:01;12.69;97.36
76040;SHT30;64736;50.462;4.850;2024-02-16T14:52:29;12.76;97.41
76040;SHT30;64736;50.462;4.850;2024-02-16T14:54:55;12.59;97.23
76040;SHT30;64736;50.462;4.850;2024-02-16T14:57:21;12.66;97.43
76040;SHT30;64736;50.462;4.850;2024-02-16T14:59:50;12.73;97.21
76040;SHT30;64736;50.462;4.850;2024-02-16T15:02:21;12.28;96.21
76040;SHT30;64736;50.462;4.850;2024-02-16T15:04:47;12.58;97.10
76040;SHT30;64736;50.462;4.850;2024-02-16T15:07:13;12.62;97.11
76040;SHT30;64736;50.462;4.850;2024-02-16T15:09:39;12.68;97.07
76040;SHT30;64736;50.462;4.850;2024-02-16T15:12:05;12.45;96.76
76040;SHT30;64736;50.462;4.850;2024-02-16T15:14:32;12.59;97.01
76040;SHT30;64736;50.462;4.850;2024-02-16T15:16:59;12.62;96.92
76040;SHT30;64736;50.462;4.850;2024-02-16T15:19:25;12.33;96.18
76040;SHT30;64736;50.462;4.850;2024-02-16T15:21:51;12.45;96.84
76040;SHT30;64736;50.462;4.850;2024-02-16T15:24:17;12.28;95.99
76040;SHT30;64736;50.462;4.850;2024-02-16T15:26:42;12.37;96.13
76040;SHT30;64736;50.462;4.850;2024-02-16T15:29:08;12.61;96.29
76040;SHT30;64736;50.462;4.850;2024-02-16T15:31:34;12.55;96.18
76040;SHT30;64736;50.462;4.850;2024-02-16T15:33:59;12.55;96.00
76040;SHT30;64736;50.462;4.850;2024-02-16T15:36:25;12.61;96.06
76040;SHT30;64736;50.462;4.850;2024-02-16T15:38:51;12.68;96.11